METAR Data
IDs: Format: Raw Decoded Include TAF

Data at: 1836 UTC 25 Mar 2019

KALI 251753Z AUTO 00000KT 9SM OVC024 23/20 A3010 RMK AO2 SLP192 T02330200 10233 20200 51008
KALI 251653Z AUTO 14004KT 9SM OVC022 23/20 A3010 RMK AO2 SLP191 T02280200
KALI 251553Z AUTO 00000KT 7SM OVC019 22/20 A3010 RMK AO2 SLP189 T02220200
KALI 251453Z AUTO 14004KT 8SM OVC020 22/20 A3008 RMK AO2 SLP183 T02170200 52014
KALI 251438Z AUTO 12003KT 8SM SCT005 OVC020 21/20 A3008 RMK AO2 T02110200
KALI 251353Z AUTO 10005KT 4SM BR OVC004 21/20 A3006 RMK AO2 SLP177 T02060200
KALI 251348Z AUTO 11005KT 5SM BR OVC004 21/20 A3006 RMK AO2
KALI 251328Z AUTO 13004KT 5SM BR BKN006 OVC022 21/20 A3005 RMK AO2 T02060200
KALI 251321Z AUTO 13004KT 5SM BR SCT008 OVC022 21/20 A3005 RMK AO2 T02060200
KALI 251253Z AUTO 13004KT 6SM HZ FEW010 OVC022 21/ A3004 RMK AO2 SLP169 T0206 /
KALI 251244Z AUTO 12003KT 7SM SCT010 OVC022 21/ A3004 RMK AO2 T0206 $
KALI 251231Z AUTO 14003KT 8SM BKN010 BKN014 OVC022 21/ A3003 RMK AO2 CIG 006V012 T0206 $
KALI 251153Z AUTO 12004KT 9SM BKN008 OVC013 21/ A3001 RMK AO2 CIG 006V010 SLP160 T0206 10211 20194 55000 $
KALI 251053Z AUTO 12003KT 10SM BKN007 OVC010 21/ A3001 RMK AO2 SLP159 T0211 $
KALI 251033Z AUTO 13004KT 10SM BKN007 OVC022 21/ A3000 RMK AO2 CIG 006V011 T0211 $
KALI 250953Z AUTO 16007KT 10SM FEW008 SCT012 OVC021 21/ A3000 RMK AO2 SLP156 T0211 $
KALI 250941Z AUTO 16007KT 10SM SCT010 BKN017 OVC021 21/ A3000 RMK AO2 T0211 $
KALI 250932Z AUTO 17007KT 10SM BKN010 BKN016 OVC023 21/ A3001 RMK AO2 CIG 008V013 T0211 $
KALI 250853Z AUTO 14005KT 10SM OVC021 21/ A3001 RMK AO2 SLP160 T0211 56007 $
KALI 250848Z AUTO 14006KT 10SM FEW009 BKN021 OVC032 21/ A3001 RMK AO2 $
KALI 250836Z AUTO 16007KT 10SM FEW010 BKN023 OVC033 21/ A3002 RMK AO2 T0211 $
KALI 250753Z AUTO 16006KT 10SM FEW020 OVC031 21/ A3003 RMK AO2 SLP165 T0211 $
KALI 250653Z AUTO 16007KT 10SM OVC032 21/ A3003 RMK AO2 SLP168 T0211 $
KALI 250553Z AUTO 16007KT 10SM CLR 19/ A3003 RMK AO2 SLP167 T0194 10256 20194 402940139 50006 $
KALI 250453Z AUTO 15008KT 10SM CLR 20/18 A3004 RMK AO2 SLP169 T02000183 $
KALI 250353Z AUTO 16013KT 10SM OVC048 22/19 A3003 RMK AO2 SLP166 T02220189 $
KALI 250253Z AUTO 15009KT 10SM OVC050 22/19 A3001 RMK AO2 SLP161 T02220194 53014 $
KALI 250153Z AUTO 14012KT 10SM FEW040 OVC050 23/19 A2999 RMK AO2 SLP155 T02280194 $
KALI 250053Z AUTO 13013G21KT 10SM SCT038 OVC050 24/19 A2998 RMK AO2 SLP151 T02390189 $
KALI 242353Z AUTO 13013G21KT 10SM SCT050 26/19 A2997 RMK AO2 SLP148 T02560189 10294 20256 55003 $
KALI 242253Z AUTO 15013KT 10SM FEW030 OVC050 27/19 A2996 RMK AO2 SLP144 T02670194 $
KALI 242153Z AUTO 15010KT 10SM BKN048 28/19 A2997 RMK AO2 SLP146 T02780189 /
KALI 242053Z AUTO 14008KT 10SM SCT039 OVC048 29/19 A2998 RMK AO2 SLP151 T02890194 56025 $
KALI 241953Z AUTO 12010KT 10SM FEW031 BKN040 28/20 A3000 RMK AO2 SLP158 T02780200 $
KALI 241853Z AUTO 15011KT 10SM FEW026 OVC035 27/20 A3003 RMK AO2 SLP169 T02720200 $
KALI 241803Z AUTO 17009KT 10SM FEW023 OVC031 26/21 A3005 RMK AO2 T02560206 $
KALI 241753Z AUTO 17010KT 10SM FEW023 OVC029 26/21 A3006 RMK AO2 SLP176 T02560206 10256 20161 58009 $
KALI 241653Z AUTO 16007KT 10SM FEW016 OVC025 24/21 A3008 RMK AO2 SLP185 T02440206 $
KALI 241553Z AUTO 19008KT 10SM BKN015 OVC024 22/21 A3009 RMK AO2 SLP188 T02220206 $
KALI 241546Z AUTO 18009KT 10SM BKN014 OVC024 22/20 A3009 RMK AO2 T02220200 $
KALI 241534Z AUTO 16010KT 10SM SCT014 OVC023 23/21 A3009 RMK AO2 T02280206 $
KALI 241453Z AUTO 16008KT 10SM FEW009 BKN013 BKN025 22/22 A3008 RMK AO2 SLP185 T02170217 53014 $
KALI 241429Z AUTO 14008KT 10SM FEW007 FEW012 BKN027 21/ A3008 RMK AO2 T0211 $
KALI 241353Z AUTO 14006KT 7SM BKN027 19/ A3006 RMK AO2 SLP179 T0194 /
KALI 241321Z AUTO 00000KT 4SM HZ FEW003 BKN024 OVC034 18/ A3006 RMK AO2 T0178 $
KALI 241253Z AUTO 00000KT 3SM BR SCT003 BKN011 OVC038 17/ A3005 RMK AO2 SLP175 T0172 $
KALI 241236Z AUTO 00000KT 3SM BR SCT002 OVC011 17/ A3005 RMK AO2 T0167 $
KALI 241208Z AUTO 00000KT 3SM BR BKN002 OVC013 17/ A3004 RMK AO2 T0167 $
KALI 241153Z AUTO 00000KT 3SM HZ FEW002 BKN012 OVC030 17/04 A3004 RMK AO2 SLP171 T01670044 10167 20139 53008 $
KALI 241137Z AUTO 00000KT 3SM BR FEW002 BKN012 OVC034 16/14 A3004 RMK AO2 T01610144 $
KALI 241133Z AUTO 00000KT 3SM BR SCT012 BKN030 OVC034 16/15 A3004 RMK AO2 T01610150 $
KALI 241124Z AUTO 04003KT 2 1/2SM BR FEW012 BKN030 OVC035 16/ A3003 RMK AO2 T0156 $
KALI 241115Z AUTO 05003KT 1SM BR FEW009 BKN029 OVC035 16/ A3003 RMK AO2 T0156 $
KALI 241053Z AUTO 03003KT 1/2SM FG SCT004 OVC018 15/ A3003 RMK AO2 SLP166 T0150 $
KALI 240953Z AUTO 04003KT 1/4SM FG VV002 15/ A3002 RMK AO2 SLP163 T0150 /
KALI 240922Z AUTO 07004KT 1/4SM FG VV003 15/ A3002 RMK AO2 T0150 $
KALI 240853Z AUTO 09003KT 1/4SM FG VV008 14/ A3001 RMK AO2 SLP161 T0144 58012 $
KALI 240831Z AUTO 11004KT 1/4SM FG VV008 14/ A3001 RMK AO2 T0144 $
KALI 240753Z AUTO 00000KT 1/4SM FG VV013 14/ A3002 RMK AO2 SLP165 T0144 $
KALI 240710Z AUTO 13004KT 1/4SM FG VV014 14/ A3003 RMK AO2 T0144 $
KALI 240653Z AUTO 09003KT 1/2SM FG VV015 14/ A3004 RMK AO2 SLP171 T0144 $
KALI 240644Z AUTO 08003KT 1/4SM FG VV016 14/ A3004 RMK AO2 T0144 $